sensor_id;sensor_type;location;lat;lon;timestamp;P1;durP1;ratioP1;P2;durP2;ratioP2
5085;SDS011;4715;51.660;7.082;2023-01-23T00:00:24;18.27;;;10.90;;
5085;SDS011;4715;51.660;7.082;2023-01-23T00:02:46;17.70;;;11.20;;
5085;SDS011;4715;51.660;7.082;2023-01-23T00:05:08;16.83;;;10.53;;
5085;SDS011;4715;51.660;7.082;2023-01-23T00:07:30;18.57;;;10.50;;
5085;SDS011;4715;51.660;7.082;2023-01-23T00:09:52;20.17;;;11.10;;
5085;SDS011;4715;51.660;7.082;2023-01-23T00:12:14;21.17;;;9.90;;
5085;SDS011;4715;51.660;7.082;2023-01-23T00:14:37;21.83;;;12.07;;
5085;SDS011;4715;51.660;7.082;2023-01-23T00:16:58;20.23;;;11.57;;
5085;SDS011;4715;51.660;7.082;2023-01-23T00:19:20;19.53;;;11.77;;
5085;SDS011;4715;51.660;7.082;2023-01-23T00:21:42;20.23;;;12.00;;
5085;SDS011;4715;51.660;7.082;2023-01-23T00:24:04;16.07;;;10.40;;
5085;SDS011;4715;51.660;7.082;2023-01-23T00:26:28;20.13;;;11.97;;
5085;SDS011;4715;51.660;7.082;2023-01-23T00:28:52;17.10;;;10.53;;
5085;SDS011;4715;51.660;7.082;2023-01-23T00:31:17;20.30;;;12.77;;
5085;SDS011;4715;51.660;7.082;2023-01-23T00:33:40;15.07;;;10.33;;
5085;SDS011;4715;51.660;7.082;2023-01-23T00:36:03;16.50;;;11.30;;
5085;SDS011;4715;51.660;7.082;2023-01-23T00:38:25;18.37;;;11.00;;
5085;SDS011;4715;51.660;7.082;2023-01-23T00:40:47;19.97;;;11.43;;
5085;SDS011;4715;51.660;7.082;2023-01-23T00:43:09;19.97;;;12.00;;
5085;SDS011;4715;51.660;7.082;2023-01-23T00:45:31;17.50;;;11.87;;
5085;SDS011;4715;51.660;7.082;2023-01-23T00:47:54;25.33;;;13.50;;
5085;SDS011;4715;51.660;7.082;2023-01-23T00:50:16;15.50;;;10.50;;
5085;SDS011;4715;51.660;7.082;2023-01-23T00:52:38;17.97;;;11.70;;
5085;SDS011;4715;51.660;7.082;2023-01-23T00:55:00;16.67;;;11.30;;
5085;SDS011;4715;51.660;7.082;2023-01-23T00:57:22;17.00;;;11.20;;
5085;SDS011;4715;51.660;7.082;2023-01-23T00:59:43;15.40;;;10.77;;
5085;SDS011;4715;51.660;7.082;2023-01-23T01:02:05;14.60;;;10.50;;
5085;SDS011;4715;51.660;7.082;2023-01-23T01:04:28;17.27;;;10.03;;
5085;SDS011;4715;51.660;7.082;2023-01-23T01:06:50;13.53;;;9.23;;
5085;SDS011;4715;51.660;7.082;2023-01-23T01:09:14;13.37;;;8.77;;
5085;SDS011;4715;51.660;7.082;2023-01-23T01:11:36;16.23;;;9.63;;
5085;SDS011;4715;51.660;7.082;2023-01-23T01:13:57;14.20;;;9.73;;
5085;SDS011;4715;51.660;7.082;2023-01-23T01:16:20;12.90;;;9.40;;
5085;SDS011;4715;51.660;7.082;2023-01-23T01:18:43;16.23;;;11.07;;
5085;SDS011;4715;51.660;7.082;2023-01-23T01:21:07;15.60;;;9.67;;
5085;SDS011;4715;51.660;7.082;2023-01-23T01:23:30;14.07;;;9.87;;
5085;SDS011;4715;51.660;7.082;2023-01-23T01:25:52;21.00;;;8.73;;
5085;SDS011;4715;51.660;7.082;2023-01-23T01:28:18;14.20;;;9.57;;
5085;SDS011;4715;51.660;7.082;2023-01-23T01:30:40;15.37;;;10.10;;
5085;SDS011;4715;51.660;7.082;2023-01-23T01:33:02;14.63;;;9.80;;
5085;SDS011;4715;51.660;7.082;2023-01-23T01:35:24;16.07;;;10.10;;
5085;SDS011;4715;51.660;7.082;2023-01-23T01:37:47;20.83;;;10.87;;
5085;SDS011;4715;51.660;7.082;2023-01-23T01:40:11;15.87;;;9.70;;
5085;SDS011;4715;51.660;7.082;2023-01-23T01:42:37;17.83;;;10.83;;
5085;SDS011;4715;51.660;7.082;2023-01-23T01:45:00;14.20;;;10.27;;
5085;SDS011;4715;51.660;7.082;2023-01-23T01:47:23;18.23;;;11.27;;
5085;SDS011;4715;51.660;7.082;2023-01-23T01:49:45;15.73;;;10.03;;
5085;SDS011;4715;51.660;7.082;2023-01-23T01:52:07;18.03;;;9.40;;
5085;SDS011;4715;51.660;7.082;2023-01-23T01:54:33;17.83;;;10.80;;
5085;SDS011;4715;51.660;7.082;2023-01-23T01:56:59;18.77;;;10.90;;
5085;SDS011;4715;51.660;7.082;2023-01-23T01:59:24;15.07;;;10.30;;
5085;SDS011;4715;51.660;7.082;2023-01-23T02:01:52;17.57;;;11.03;;
5085;SDS011;4715;51.660;7.082;2023-01-23T02:04:23;16.70;;;9.50;;
5085;SDS011;4715;51.660;7.082;2023-01-23T02:06:45;17.37;;;11.00;;
5085;SDS011;4715;51.660;7.082;2023-01-23T02:09:10;18.10;;;13.00;;
5085;SDS011;4715;51.660;7.082;2023-01-23T02:11:38;17.67;;;12.03;;
5085;SDS011;4715;51.660;7.082;2023-01-23T02:14:00;17.27;;;11.33;;
5085;SDS011;4715;51.660;7.082;2023-01-23T02:16:24;21.20;;;11.67;;
5085;SDS011;4715;51.660;7.082;2023-01-23T02:18:49;19.53;;;11.63;;
5085;SDS011;4715;51.660;7.082;2023-01-23T02:21:18;14.50;;;10.07;;
5085;SDS011;4715;51.660;7.082;2023-01-23T02:23:44;13.03;;;9.93;;
5085;SDS011;4715;51.660;7.082;2023-01-23T02:26:16;19.17;;;11.03;;
5085;SDS011;4715;51.660;7.082;2023-01-23T02:28:41;19.30;;;11.50;;
5085;SDS011;4715;51.660;7.082;2023-01-23T02:31:04;18.40;;;11.63;;
5085;SDS011;4715;51.660;7.082;2023-01-23T02:33:44;17.43;;;11.17;;
5085;SDS011;4715;51.660;7.082;2023-01-23T02:36:11;16.03;;;11.30;;
5085;SDS011;4715;51.660;7.082;2023-01-23T02:38:33;17.20;;;10.50;;
5085;SDS011;4715;51.660;7.082;2023-01-23T02:40:58;18.60;;;10.23;;
5085;SDS011;4715;51.660;7.082;2023-01-23T02:43:25;16.13;;;10.57;;
5085;SDS011;4715;51.660;7.082;2023-01-23T02:45:54;17.23;;;11.17;;
5085;SDS011;4715;51.660;7.082;2023-01-23T02:48:15;14.27;;;10.70;;
5085;SDS011;4715;51.660;7.082;2023-01-23T02:50:37;14.23;;;9.77;;
5085;SDS011;4715;51.660;7.082;2023-01-23T02:52:59;18.00;;;10.10;;
5085;SDS011;4715;51.660;7.082;2023-01-23T02:55:21;18.20;;;10.70;;
5085;SDS011;4715;51.660;7.082;2023-01-23T02:57:43;21.17;;;11.57;;
5085;SDS011;4715;51.660;7.082;2023-01-23T03:00:07;19.40;;;11.80;;
5085;SDS011;4715;51.660;7.082;2023-01-23T03:02:39;13.57;;;9.30;;
5085;SDS011;4715;51.660;7.082;2023-01-23T03:05:01;17.20;;;10.80;;
5085;SDS011;4715;51.660;7.082;2023-01-23T03:07:22;14.00;;;9.83;;
5085;SDS011;4715;51.660;7.082;2023-01-23T03:09:44;19.63;;;10.37;;
5085;SDS011;4715;51.660;7.082;2023-01-23T03:12:07;13.33;;;9.10;;
5085;SDS011;4715;51.660;7.082;2023-01-23T03:14:29;13.70;;;9.17;;
5085;SDS011;4715;51.660;7.082;2023-01-23T03:16:52;16.60;;;9.53;;
5085;SDS011;4715;51.660;7.082;2023-01-23T03:19:14;13.47;;;8.73;;
5085;SDS011;4715;51.660;7.082;2023-01-23T03:21:37;12.10;;;8.63;;
5085;SDS011;4715;51.660;7.082;2023-01-23T03:24:01;14.50;;;10.23;;
5085;SDS011;4715;51.660;7.082;2023-01-23T03:26:24;13.27;;;8.90;;
5085;SDS011;4715;51.660;7.082;2023-01-23T03:28:46;10.03;;;7.50;;
5085;SDS011;4715;51.660;7.082;2023-01-23T03:31:25;14.37;;;8.97;;
5085;SDS011;4715;51.660;7.082;2023-01-23T03:33:48;13.20;;;10.00;;
5085;SDS011;4715;51.660;7.082;2023-01-23T03:36:10;16.23;;;9.67;;
5085;SDS011;4715;51.660;7.082;2023-01-23T03:38:33;15.00;;;10.23;;
5085;SDS011;4715;51.660;7.082;2023-01-23T03:40:54;15.70;;;9.27;;
5085;SDS011;4715;51.660;7.082;2023-01-23T03:43:34;13.83;;;10.07;;
5085;SDS011;4715;51.660;7.082;2023-01-23T03:45:55;18.43;;;10.27;;
5085;SDS011;4715;51.660;7.082;2023-01-23T03:48:17;13.40;;;9.10;;
5085;SDS011;4715;51.660;7.082;2023-01-23T03:50:41;13.80;;;9.40;;
5085;SDS011;4715;51.660;7.082;2023-01-23T03:53:02;16.00;;;10.60;;
5085;SDS011;4715;51.660;7.082;2023-01-23T03:55:24;13.43;;;8.67;;
5085;SDS011;4715;51.660;7.082;2023-01-23T03:57:46;16.87;;;10.27;;
5085;SDS011;4715;51.660;7.082;2023-01-23T04:00:08;16.83;;;9.70;;
5085;SDS011;4715;51.660;7.082;2023-01-23T04:02:32;14.77;;;10.47;;
5085;SDS011;4715;51.660;7.082;2023-01-23T04:04:54;12.23;;;9.33;;
5085;SDS011;4715;51.660;7.082;2023-01-23T04:07:17;12.40;;;9.03;;
5085;SDS011;4715;51.660;7.082;2023-01-23T04:09:39;14.03;;;10.07;;
5085;SDS011;4715;51.660;7.082;2023-01-23T04:12:01;14.33;;;9.57;;
5085;SDS011;4715;51.660;7.082;2023-01-23T04:14:26;14.70;;;9.00;;
5085;SDS011;4715;51.660;7.082;2023-01-23T04:16:54;14.73;;;9.37;;
5085;SDS011;4715;51.660;7.082;2023-01-23T04:19:16;12.63;;;8.60;;
5085;SDS011;4715;51.660;7.082;2023-01-23T04:21:38;13.30;;;8.10;;
5085;SDS011;4715;51.660;7.082;2023-01-23T04:24:02;12.87;;;9.00;;
5085;SDS011;4715;51.660;7.082;2023-01-23T04:26:23;12.77;;;8.60;;
5085;SDS011;4715;51.660;7.082;2023-01-23T04:28:45;10.93;;;8.10;;
5085;SDS011;4715;51.660;7.082;2023-01-23T04:31:07;12.03;;;8.07;;
5085;SDS011;4715;51.660;7.082;2023-01-23T04:33:29;15.17;;;8.57;;
5085;SDS011;4715;51.660;7.082;2023-01-23T04:35:52;12.90;;;8.70;;
5085;SDS011;4715;51.660;7.082;2023-01-23T04:38:15;13.17;;;9.03;;
5085;SDS011;4715;51.660;7.082;2023-01-23T04:40:38;14.37;;;9.67;;
5085;SDS011;4715;51.660;7.082;2023-01-23T04:43:00;14.10;;;10.10;;
5085;SDS011;4715;51.660;7.082;2023-01-23T04:45:22;15.23;;;9.03;;
5085;SDS011;4715;51.660;7.082;2023-01-23T04:47:44;13.47;;;9.00;;
5085;SDS011;4715;51.660;7.082;2023-01-23T04:50:06;15.00;;;9.77;;
5085;SDS011;4715;51.660;7.082;2023-01-23T04:52:28;14.33;;;10.60;;
5085;SDS011;4715;51.660;7.082;2023-01-23T04:54:50;17.40;;;9.80;;
5085;SDS011;4715;51.660;7.082;2023-01-23T04:57:14;16.87;;;11.27;;
5085;SDS011;4715;51.660;7.082;2023-01-23T04:59:35;16.03;;;11.20;;
5085;SDS011;4715;51.660;7.082;2023-01-23T05:01:57;16.37;;;10.50;;
5085;SDS011;4715;51.660;7.082;2023-01-23T05:04:21;21.97;;;12.20;;
5085;SDS011;4715;51.660;7.082;2023-01-23T05:06:43;15.00;;;10.37;;
5085;SDS011;4715;51.660;7.082;2023-01-23T05:09:04;16.43;;;9.50;;
5085;SDS011;4715;51.660;7.082;2023-01-23T05:11:27;11.23;;;9.17;;
5085;SDS011;4715;51.660;7.082;2023-01-23T05:13:50;16.70;;;9.50;;
5085;SDS011;4715;51.660;7.082;2023-01-23T05:16:12;15.40;;;10.30;;
5085;SDS011;4715;51.660;7.082;2023-01-23T05:18:34;16.43;;;9.53;;
5085;SDS011;4715;51.660;7.082;2023-01-23T05:20:56;14.60;;;9.63;;
5085;SDS011;4715;51.660;7.082;2023-01-23T05:23:17;14.37;;;8.50;;
5085;SDS011;4715;51.660;7.082;2023-01-23T05:25:39;13.30;;;9.30;;
5085;SDS011;4715;51.660;7.082;2023-01-23T05:28:01;15.93;;;10.00;;
5085;SDS011;4715;51.660;7.082;2023-01-23T05:30:24;15.23;;;10.00;;
5085;SDS011;4715;51.660;7.082;2023-01-23T05:32:46;14.87;;;10.00;;
5085;SDS011;4715;51.660;7.082;2023-01-23T05:35:08;17.33;;;10.87;;
5085;SDS011;4715;51.660;7.082;2023-01-23T05:37:32;17.63;;;9.63;;
5085;SDS011;4715;51.660;7.082;2023-01-23T05:39:53;17.10;;;10.27;;
5085;SDS011;4715;51.660;7.082;2023-01-23T05:42:15;13.57;;;8.73;;
5085;SDS011;4715;51.660;7.082;2023-01-23T05:44:37;15.23;;;9.17;;
5085;SDS011;4715;51.660;7.082;2023-01-23T05:47:00;12.50;;;9.70;;
5085;SDS011;4715;51.660;7.082;2023-01-23T05:49:22;14.50;;;9.03;;
5085;SDS011;4715;51.660;7.082;2023-01-23T05:51:44;14.03;;;8.70;;
5085;SDS011;4715;51.660;7.082;2023-01-23T05:54:05;16.23;;;10.30;;
5085;SDS011;4715;51.660;7.082;2023-01-23T05:56:27;14.00;;;9.50;;
5085;SDS011;4715;51.660;7.082;2023-01-23T05:58:49;14.87;;;10.50;;
5085;SDS011;4715;51.660;7.082;2023-01-23T06:01:11;16.93;;;10.20;;
5085;SDS011;4715;51.660;7.082;2023-01-23T06:03:34;18.17;;;10.80;;
5085;SDS011;4715;51.660;7.082;2023-01-23T06:05:56;16.20;;;9.53;;
5085;SDS011;4715;51.660;7.082;2023-01-23T06:08:20;16.27;;;10.13;;
5085;SDS011;4715;51.660;7.082;2023-01-23T06:10:42;15.17;;;9.33;;
5085;SDS011;4715;51.660;7.082;2023-01-23T06:13:04;12.60;;;9.53;;
5085;SDS011;4715;51.660;7.082;2023-01-23T06:15:26;15.27;;;9.07;;
5085;SDS011;4715;51.660;7.082;2023-01-23T06:17:48;14.23;;;9.93;;
5085;SDS011;4715;51.660;7.082;2023-01-23T06:20:11;12.20;;;8.83;;
5085;SDS011;4715;51.660;7.082;2023-01-23T06:22:34;13.77;;;8.83;;
5085;SDS011;4715;51.660;7.082;2023-01-23T06:24:55;14.97;;;9.70;;
5085;SDS011;4715;51.660;7.082;2023-01-23T06:27:17;14.70;;;10.03;;
5085;SDS011;4715;51.660;7.082;2023-01-23T06:29:39;14.87;;;9.90;;
5085;SDS011;4715;51.660;7.082;2023-01-23T06:32:01;15.70;;;9.50;;
5085;SDS011;4715;51.660;7.082;2023-01-23T06:34:24;14.33;;;9.57;;
5085;SDS011;4715;51.660;7.082;2023-01-23T06:36:47;16.73;;;8.60;;
5085;SDS011;4715;51.660;7.082;2023-01-23T06:39:11;14.70;;;9.50;;
5085;SDS011;4715;51.660;7.082;2023-01-23T06:41:36;15.07;;;8.90;;
5085;SDS011;4715;51.660;7.082;2023-01-23T06:43:59;16.60;;;9.93;;
5085;SDS011;4715;51.660;7.082;2023-01-23T06:46:20;15.87;;;9.50;;
5085;SDS011;4715;51.660;7.082;2023-01-23T06:48:42;15.23;;;8.50;;
5085;SDS011;4715;51.660;7.082;2023-01-23T06:51:04;15.17;;;9.20;;
5085;SDS011;4715;51.660;7.082;2023-01-23T06:53:27;13.23;;;8.70;;
5085;SDS011;4715;51.660;7.082;2023-01-23T06:55:49;12.63;;;8.73;;
5085;SDS011;4715;51.660;7.082;2023-01-23T06:58:11;12.40;;;7.73;;
5085;SDS011;4715;51.660;7.082;2023-01-23T07:00:33;12.63;;;8.73;;
5085;SDS011;4715;51.660;7.082;2023-01-23T07:02:55;13.43;;;9.30;;
5085;SDS011;4715;51.660;7.082;2023-01-23T07:05:22;11.87;;;7.60;;
5085;SDS011;4715;51.660;7.082;2023-01-23T07:07:44;11.60;;;7.00;;
5085;SDS011;4715;51.660;7.082;2023-01-23T07:10:09;11.13;;;8.03;;
5085;SDS011;4715;51.660;7.082;2023-01-23T07:12:32;12.20;;;7.70;;
5085;SDS011;4715;51.660;7.082;2023-01-23T07:15:03;11.37;;;7.33;;
5085;SDS011;4715;51.660;7.082;2023-01-23T07:17:26;17.73;;;10.07;;
5085;SDS011;4715;51.660;7.082;2023-01-23T07:19:48;10.60;;;8.40;;
5085;SDS011;4715;51.660;7.082;2023-01-23T07:22:10;13.33;;;8.70;;
5085;SDS011;4715;51.660;7.082;2023-01-23T07:24:32;13.37;;;8.30;;
5085;SDS011;4715;51.660;7.082;2023-01-23T07:26:55;14.37;;;8.13;;
5085;SDS011;4715;51.660;7.082;2023-01-23T07:29:17;12.23;;;7.50;;
5085;SDS011;4715;51.660;7.082;2023-01-23T07:31:39;12.00;;;8.00;;
5085;SDS011;4715;51.660;7.082;2023-01-23T07:34:01;12.97;;;7.80;;
5085;SDS011;4715;51.660;7.082;2023-01-23T07:36:23;11.43;;;9.27;;
5085;SDS011;4715;51.660;7.082;2023-01-23T07:38:45;13.30;;;7.97;;
5085;SDS011;4715;51.660;7.082;2023-01-23T07:41:07;12.07;;;7.83;;
5085;SDS011;4715;51.660;7.082;2023-01-23T07:43:31;11.07;;;7.47;;
5085;SDS011;4715;51.660;7.082;2023-01-23T07:45:52;9.10;;;6.57;;
5085;SDS011;4715;51.660;7.082;2023-01-23T07:48:14;10.30;;;7.13;;
5085;SDS011;4715;51.660;7.082;2023-01-23T07:50:36;11.87;;;7.80;;
5085;SDS011;4715;51.660;7.082;2023-01-23T07:52:58;13.70;;;8.20;;
5085;SDS011;4715;51.660;7.082;2023-01-23T07:55:20;11.40;;;7.00;;
5085;SDS011;4715;51.660;7.082;2023-01-23T07:57:42;13.20;;;8.17;;
5085;SDS011;4715;51.660;7.082;2023-01-23T08:00:05;13.77;;;8.20;;
5085;SDS011;4715;51.660;7.082;2023-01-23T08:02:29;11.63;;;8.70;;
5085;SDS011;4715;51.660;7.082;2023-01-23T08:04:51;12.77;;;8.50;;
5085;SDS011;4715;51.660;7.082;2023-01-23T08:07:13;9.70;;;6.63;;
5085;SDS011;4715;51.660;7.082;2023-01-23T08:09:34;12.23;;;8.47;;
5085;SDS011;4715;51.660;7.082;2023-01-23T08:11:56;8.20;;;7.03;;
5085;SDS011;4715;51.660;7.082;2023-01-23T08:14:18;12.70;;;7.60;;
5085;SDS011;4715;51.660;7.082;2023-01-23T08:16:41;10.10;;;7.63;;
5085;SDS011;4715;51.660;7.082;2023-01-23T08:19:05;11.43;;;7.03;;
5085;SDS011;4715;51.660;7.082;2023-01-23T08:21:28;10.70;;;7.60;;
5085;SDS011;4715;51.660;7.082;2023-01-23T08:23:50;12.07;;;8.40;;
5085;SDS011;4715;51.660;7.082;2023-01-23T08:26:12;11.27;;;7.90;;
5085;SDS011;4715;51.660;7.082;2023-01-23T08:28:35;14.87;;;9.43;;
5085;SDS011;4715;51.660;7.082;2023-01-23T08:30:58;15.43;;;9.60;;
5085;SDS011;4715;51.660;7.082;2023-01-23T08:33:22;15.70;;;9.90;;
5085;SDS011;4715;51.660;7.082;2023-01-23T08:35:47;11.43;;;8.50;;
5085;SDS011;4715;51.660;7.082;2023-01-23T08:38:09;14.93;;;9.40;;
5085;SDS011;4715;51.660;7.082;2023-01-23T08:40:31;15.80;;;10.37;;
5085;SDS011;4715;51.660;7.082;2023-01-23T08:42:54;16.33;;;10.67;;
5085;SDS011;4715;51.660;7.082;2023-01-23T08:45:16;16.80;;;9.50;;
5085;SDS011;4715;51.660;7.082;2023-01-23T08:47:38;13.93;;;8.80;;
5085;SDS011;4715;51.660;7.082;2023-01-23T08:50:01;14.30;;;9.97;;
5085;SDS011;4715;51.660;7.082;2023-01-23T08:52:23;14.20;;;10.23;;
5085;SDS011;4715;51.660;7.082;2023-01-23T08:54:45;11.77;;;9.00;;
5085;SDS011;4715;51.660;7.082;2023-01-23T08:57:07;12.53;;;8.40;;
5085;SDS011;4715;51.660;7.082;2023-01-23T08:59:29;15.00;;;10.00;;
5085;SDS011;4715;51.660;7.082;2023-01-23T09:01:51;18.53;;;10.43;;
5085;SDS011;4715;51.660;7.082;2023-01-23T09:04:13;19.80;;;10.33;;
5085;SDS011;4715;51.660;7.082;2023-01-23T09:06:37;14.33;;;10.10;;
5085;SDS011;4715;51.660;7.082;2023-01-23T09:08:59;13.30;;;9.10;;
5085;SDS011;4715;51.660;7.082;2023-01-23T09:11:21;14.30;;;8.90;;
5085;SDS011;4715;51.660;7.082;2023-01-23T09:13:44;17.23;;;10.90;;
5085;SDS011;4715;51.660;7.082;2023-01-23T09:16:06;17.33;;;11.63;;
5085;SDS011;4715;51.660;7.082;2023-01-23T09:18:29;17.63;;;10.23;;
5085;SDS011;4715;51.660;7.082;2023-01-23T09:20:51;15.73;;;10.53;;
5085;SDS011;4715;51.660;7.082;2023-01-23T09:23:15;17.77;;;9.80;;
5085;SDS011;4715;51.660;7.082;2023-01-23T09:25:40;14.07;;;9.47;;
5085;SDS011;4715;51.660;7.082;2023-01-23T09:28:03;15.47;;;10.83;;
5085;SDS011;4715;51.660;7.082;2023-01-23T09:30:26;16.60;;;9.67;;
5085;SDS011;4715;51.660;7.082;2023-01-23T09:32:48;13.40;;;8.73;;
5085;SDS011;4715;51.660;7.082;2023-01-23T09:35:10;14.60;;;9.63;;
5085;SDS011;4715;51.660;7.082;2023-01-23T09:37:32;19.27;;;10.70;;
5085;SDS011;4715;51.660;7.082;2023-01-23T09:40:16;16.90;;;9.93;;
5085;SDS011;4715;51.660;7.082;2023-01-23T09:42:41;15.57;;;10.90;;
5085;SDS011;4715;51.660;7.082;2023-01-23T09:45:04;19.33;;;11.57;;
5085;SDS011;4715;51.660;7.082;2023-01-23T09:47:30;15.33;;;9.80;;
5085;SDS011;4715;51.660;7.082;2023-01-23T09:49:57;20.10;;;12.20;;
5085;SDS011;4715;51.660;7.082;2023-01-23T09:52:29;14.37;;;10.70;;
5085;SDS011;4715;51.660;7.082;2023-01-23T09:54:58;13.87;;;9.93;;
5085;SDS011;4715;51.660;7.082;2023-01-23T09:57:27;17.57;;;10.27;;
5085;SDS011;4715;51.660;7.082;2023-01-23T09:59:54;14.37;;;9.90;;
5085;SDS011;4715;51.660;7.082;2023-01-23T10:02:21;13.80;;;10.27;;
5085;SDS011;4715;51.660;7.082;2023-01-23T10:04:44;13.43;;;9.57;;
5085;SDS011;4715;51.660;7.082;2023-01-23T10:07:11;16.77;;;10.70;;
5085;SDS011;4715;51.660;7.082;2023-01-23T10:09:44;14.80;;;10.67;;
5085;SDS011;4715;51.660;7.082;2023-01-23T10:12:23;12.40;;;9.67;;
5085;SDS011;4715;51.660;7.082;2023-01-23T10:15:00;14.17;;;9.83;;
5085;SDS011;4715;51.660;7.082;2023-01-23T10:17:38;13.93;;;8.87;;
5085;SDS011;4715;51.660;7.082;2023-01-23T10:20:16;10.67;;;8.30;;
5085;SDS011;4715;51.660;7.082;2023-01-23T10:22:50;13.47;;;8.83;;
5085;SDS011;4715;51.660;7.082;2023-01-23T10:25:24;11.50;;;9.00;;
5085;SDS011;4715;51.660;7.082;2023-01-23T10:27:50;10.47;;;7.40;;
5085;SDS011;4715;51.660;7.082;2023-01-23T10:30:25;10.67;;;7.20;;
5085;SDS011;4715;51.660;7.082;2023-01-23T10:32:50;11.17;;;7.43;;
5085;SDS011;4715;51.660;7.082;2023-01-23T10:35:16;9.90;;;7.43;;
5085;SDS011;4715;51.660;7.082;2023-01-23T10:37:43;12.57;;;8.47;;
5085;SDS011;4715;51.660;7.082;2023-01-23T10:40:12;13.70;;;10.10;;
5085;SDS011;4715;51.660;7.082;2023-01-23T10:42:35;14.20;;;10.00;;
5085;SDS011;4715;51.660;7.082;2023-01-23T10:44:59;11.40;;;9.13;;
5085;SDS011;4715;51.660;7.082;2023-01-23T10:47:23;13.17;;;8.67;;
5085;SDS011;4715;51.660;7.082;2023-01-23T10:49:49;9.13;;;6.70;;
5085;SDS011;4715;51.660;7.082;2023-01-23T10:52:28;11.50;;;8.97;;
5085;SDS011;4715;51.660;7.082;2023-01-23T10:54:52;10.03;;;7.30;;
5085;SDS011;4715;51.660;7.082;2023-01-23T10:57:19;10.30;;;7.80;;
5085;SDS011;4715;51.660;7.082;2023-01-23T10:59:48;7.10;;;6.40;;
5085;SDS011;4715;51.660;7.082;2023-01-23T11:02:20;7.93;;;6.23;;
5085;SDS011;4715;51.660;7.082;2023-01-23T11:04:46;7.00;;;5.70;;
5085;SDS011;4715;51.660;7.082;2023-01-23T11:07:13;7.83;;;6.63;;
5085;SDS011;4715;51.660;7.082;2023-01-23T11:09:43;7.67;;;6.00;;
5085;SDS011;4715;51.660;7.082;2023-01-23T11:12:12;8.27;;;7.47;;
5085;SDS011;4715;51.660;7.082;2023-01-23T11:14:36;10.63;;;7.63;;
5085;SDS011;4715;51.660;7.082;2023-01-23T11:17:01;6.73;;;6.07;;
5085;SDS011;4715;51.660;7.082;2023-01-23T11:19:27;8.60;;;7.00;;
5085;SDS011;4715;51.660;7.082;2023-01-23T11:21:54;8.10;;;6.63;;
5085;SDS011;4715;51.660;7.082;2023-01-23T11:24:17;6.60;;;5.90;;
5085;SDS011;4715;51.660;7.082;2023-01-23T11:26:40;7.17;;;6.47;;
5085;SDS011;4715;51.660;7.082;2023-01-23T11:29:08;8.77;;;6.13;;
5085;SDS011;4715;51.660;7.082;2023-01-23T11:31:40;7.13;;;6.00;;
5085;SDS011;4715;51.660;7.082;2023-01-23T11:34:04;7.63;;;5.80;;
5085;SDS011;4715;51.660;7.082;2023-01-23T11:36:37;8.17;;;7.03;;
5085;SDS011;4715;51.660;7.082;2023-01-23T11:39:04;10.07;;;7.10;;
5085;SDS011;4715;51.660;7.082;2023-01-23T11:41:35;8.83;;;6.40;;
5085;SDS011;4715;51.660;7.082;2023-01-23T11:43:57;6.30;;;5.70;;
5085;SDS011;4715;51.660;7.082;2023-01-23T11:46:28;7.27;;;5.80;;
5085;SDS011;4715;51.660;7.082;2023-01-23T11:49:12;8.43;;;6.00;;
5085;SDS011;4715;51.660;7.082;2023-01-23T11:51:48;7.57;;;6.53;;
5085;SDS011;4715;51.660;7.082;2023-01-23T11:54:28;9.43;;;6.57;;
5085;SDS011;4715;51.660;7.082;2023-01-23T11:57:01;7.73;;;6.50;;
5085;SDS011;4715;51.660;7.082;2023-01-23T11:59:38;11.60;;;7.90;;
5085;SDS011;4715;51.660;7.082;2023-01-23T12:02:18;11.17;;;8.20;;
5085;SDS011;4715;51.660;7.082;2023-01-23T12:05:07;9.30;;;7.03;;
5085;SDS011;4715;51.660;7.082;2023-01-23T12:07:43;10.57;;;8.50;;
5085;SDS011;4715;51.660;7.082;2023-01-23T12:10:15;7.93;;;6.70;;
5085;SDS011;4715;51.660;7.082;2023-01-23T12:12:47;11.27;;;7.77;;
5085;SDS011;4715;51.660;7.082;2023-01-23T12:15:23;10.00;;;7.63;;
5085;SDS011;4715;51.660;7.082;2023-01-23T12:17:53;7.00;;;5.93;;
5085;SDS011;4715;51.660;7.082;2023-01-23T12:20:27;9.57;;;7.20;;
5085;SDS011;4715;51.660;7.082;2023-01-23T12:23:03;9.10;;;7.50;;
5085;SDS011;4715;51.660;7.082;2023-01-23T12:25:37;9.70;;;7.57;;
5085;SDS011;4715;51.660;7.082;2023-01-23T12:28:04;8.50;;;7.37;;
5085;SDS011;4715;51.660;7.082;2023-01-23T12:30:48;10.90;;;7.07;;
5085;SDS011;4715;51.660;7.082;2023-01-23T12:33:29;9.67;;;6.37;;
5085;SDS011;4715;51.660;7.082;2023-01-23T12:36:12;9.70;;;8.03;;
5085;SDS011;4715;51.660;7.082;2023-01-23T12:38:48;10.07;;;7.73;;
5085;SDS011;4715;51.660;7.082;2023-01-23T12:41:26;14.07;;;9.03;;
5085;SDS011;4715;51.660;7.082;2023-01-23T12:43:56;12.90;;;9.30;;
5085;SDS011;4715;51.660;7.082;2023-01-23T12:46:25;12.00;;;8.40;;
5085;SDS011;4715;51.660;7.082;2023-01-23T12:48:54;9.23;;;8.00;;
5085;SDS011;4715;51.660;7.082;2023-01-23T12:51:26;12.10;;;8.80;;
5085;SDS011;4715;51.660;7.082;2023-01-23T12:54:00;8.77;;;7.93;;
5085;SDS011;4715;51.660;7.082;2023-01-23T12:56:34;9.90;;;7.63;;
5085;SDS011;4715;51.660;7.082;2023-01-23T12:59:01;10.10;;;8.00;;
5085;SDS011;4715;51.660;7.082;2023-01-23T13:01:34;12.60;;;8.70;;
5085;SDS011;4715;51.660;7.082;2023-01-23T13:04:13;9.30;;;7.27;;
5085;SDS011;4715;51.660;7.082;2023-01-23T13:06:49;13.00;;;9.00;;
5085;SDS011;4715;51.660;7.082;2023-01-23T13:09:20;15.60;;;9.60;;
5085;SDS011;4715;51.660;7.082;2023-01-23T13:11:52;8.07;;;7.00;;
5085;SDS011;4715;51.660;7.082;2023-01-23T13:14:22;12.10;;;9.17;;
5085;SDS011;4715;51.660;7.082;2023-01-23T13:16:45;10.87;;;7.60;;
5085;SDS011;4715;51.660;7.082;2023-01-23T13:19:15;9.17;;;8.07;;
5085;SDS011;4715;51.660;7.082;2023-01-23T13:22:01;8.40;;;7.03;;
5085;SDS011;4715;51.660;7.082;2023-01-23T13:24:36;12.83;;;9.33;;
5085;SDS011;4715;51.660;7.082;2023-01-23T13:27:33;11.53;;;9.13;;
5085;SDS011;4715;51.660;7.082;2023-01-23T13:29:57;16.57;;;9.63;;
5085;SDS011;4715;51.660;7.082;2023-01-23T13:32:20;15.50;;;10.90;;
5085;SDS011;4715;51.660;7.082;2023-01-23T13:34:44;15.70;;;10.40;;
5085;SDS011;4715;51.660;7.082;2023-01-23T13:40:15;13.40;;;10.37;;
5085;SDS011;4715;51.660;7.082;2023-01-23T13:42:39;13.83;;;9.37;;
5085;SDS011;4715;51.660;7.082;2023-01-23T13:45:20;11.93;;;8.73;;
5085;SDS011;4715;51.660;7.082;2023-01-23T13:47:47;12.97;;;8.23;;
5085;SDS011;4715;51.660;7.082;2023-01-23T13:50:35;9.90;;;7.60;;
5085;SDS011;4715;51.660;7.082;2023-01-23T13:53:06;11.07;;;9.90;;
5085;SDS011;4715;51.660;7.082;2023-01-23T13:55:55;10.90;;;8.10;;
5085;SDS011;4715;51.660;7.082;2023-01-23T13:58:34;14.07;;;10.30;;
5085;SDS011;4715;51.660;7.082;2023-01-23T14:00:56;10.47;;;7.90;;
5085;SDS011;4715;51.660;7.082;2023-01-23T14:03:44;12.17;;;8.20;;
5085;SDS011;4715;51.660;7.082;2023-01-23T14:06:31;15.40;;;9.57;;
5085;SDS011;4715;51.660;7.082;2023-01-23T14:08:54;14.43;;;9.70;;
5085;SDS011;4715;51.660;7.082;2023-01-23T14:11:18;13.90;;;8.63;;
5085;SDS011;4715;51.660;7.082;2023-01-23T14:13:46;14.97;;;9.70;;
5085;SDS011;4715;51.660;7.082;2023-01-23T14:16:10;10.13;;;8.37;;
5085;SDS011;4715;51.660;7.082;2023-01-23T14:18:38;13.67;;;10.07;;
5085;SDS011;4715;51.660;7.082;2023-01-23T14:21:12;10.77;;;8.70;;
5085;SDS011;4715;51.660;7.082;2023-01-23T14:23:39;11.40;;;8.47;;
5085;SDS011;4715;51.660;7.082;2023-01-23T14:26:02;12.10;;;8.60;;
5085;SDS011;4715;51.660;7.082;2023-01-23T14:28:26;12.13;;;9.43;;
5085;SDS011;4715;51.660;7.082;2023-01-23T14:30:52;13.20;;;8.27;;
5085;SDS011;4715;51.660;7.082;2023-01-23T14:33:15;18.13;;;9.23;;
5085;SDS011;4715;51.660;7.082;2023-01-23T14:35:38;14.07;;;9.30;;
5085;SDS011;4715;51.660;7.082;2023-01-23T14:38:01;13.47;;;10.30;;
5085;SDS011;4715;51.660;7.082;2023-01-23T14:40:25;10.50;;;8.63;;
5085;SDS011;4715;51.660;7.082;2023-01-23T14:42:49;17.90;;;9.83;;
5085;SDS011;4715;51.660;7.082;2023-01-23T14:45:20;16.07;;;10.63;;
5085;SDS011;4715;51.660;7.082;2023-01-23T14:47:43;14.40;;;9.30;;
5085;SDS011;4715;51.660;7.082;2023-01-23T14:50:07;14.67;;;10.03;;